createdAt,value
2017-12-20T00:01:43.918Z,40.58
2017-12-20T00:04:12.562Z,40.59
2017-12-20T00:06:41.261Z,40.60
2017-12-20T00:09:09.760Z,40.55
2017-12-20T00:11:38.502Z,40.54
2017-12-20T00:14:07.300Z,40.53
2017-12-20T00:16:35.887Z,40.52
2017-12-20T00:19:04.684Z,40.54
2017-12-20T00:21:33.205Z,40.65
2017-12-20T00:24:01.878Z,40.58
2017-12-20T00:26:30.769Z,40.61
2017-12-20T00:28:59.625Z,40.70
2017-12-20T00:31:28.127Z,40.59
2017-12-20T00:33:56.795Z,40.69
2017-12-20T00:36:25.492Z,40.75
2017-12-20T00:38:54.136Z,40.70
2017-12-20T00:41:22.701Z,40.79
2017-12-20T00:43:51.326Z,40.81
2017-12-20T00:46:20.075Z,40.76
2017-12-20T00:48:48.884Z,40.88
2017-12-20T00:51:17.457Z,40.84
2017-12-20T00:53:46.317Z,40.93
2017-12-20T00:56:15.168Z,40.85
2017-12-20T00:58:43.643Z,40.83
2017-12-20T01:01:12.144Z,40.95
2017-12-20T01:03:41.120Z,42.51
2017-12-20T01:06:09.803Z,43.32
2017-12-20T01:08:38.556Z,43.38
2017-12-20T01:11:07.658Z,43.46
2017-12-20T01:13:36.640Z,43.41
2017-12-20T01:16:05.164Z,43.51
2017-12-20T01:18:34.060Z,43.27
2017-12-20T01:21:02.759Z,43.08
2017-12-20T01:23:31.637Z,43.08
2017-12-20T01:26:00.245Z,42.99
2017-12-20T01:28:28.908Z,42.95
2017-12-20T01:30:57.553Z,42.96
2017-12-20T01:33:26.198Z,42.83
2017-12-20T01:35:55.088Z,42.76
2017-12-20T01:38:23.790Z,42.69
2017-12-20T01:40:52.553Z,42.96
2017-12-20T01:43:21.310Z,43.16
2017-12-20T01:45:49.836Z,43.35
2017-12-20T01:48:18.674Z,43.35
2017-12-20T01:50:47.461Z,43.28
2017-12-20T01:53:16.259Z,43.17
2017-12-20T01:55:44.851Z,42.87
2017-12-20T01:58:13.648Z,42.61
2017-12-20T02:00:42.340Z,42.43
2017-12-20T02:03:11.422Z,42.30
2017-12-20T02:05:39.987Z,42.20
2017-12-20T02:08:08.625Z,41.95
2017-12-20T02:10:37.356Z,41.90
2017-12-20T02:13:06.117Z,41.97
2017-12-20T02:15:34.744Z,42.04
2017-12-20T02:18:03.368Z,42.04
2017-12-20T02:20:32.207Z,41.95
2017-12-20T02:23:01.096Z,41.94
2017-12-20T02:25:29.699Z,41.98
2017-12-20T02:27:58.490Z,42.02
2017-12-20T02:30:27.036Z,41.82
2017-12-20T02:32:55.694Z,41.78
2017-12-20T02:35:24.442Z,41.74
2017-12-20T02:37:53.213Z,41.63
2017-12-20T02:40:21.938Z,41.56
2017-12-20T02:42:50.793Z,41.53
2017-12-20T02:45:19.511Z,41.35
2017-12-20T02:47:47.996Z,41.23
2017-12-20T02:50:16.747Z,41.20
2017-12-20T02:52:45.524Z,41.16
2017-12-20T02:55:14.256Z,41.15
2017-12-20T02:57:42.968Z,41.07
2017-12-20T03:00:11.786Z,41.05
2017-12-20T03:02:40.312Z,41.11
2017-12-20T03:05:09.205Z,41.15
2017-12-20T03:07:37.908Z,41.09
2017-12-20T03:10:06.710Z,40.75
2017-12-20T03:12:35.459Z,40.41
2017-12-20T03:15:04.360Z,40.32
2017-12-20T03:17:33.073Z,40.32
2017-12-20T03:20:01.881Z,40.37
2017-12-20T03:22:30.677Z,40.21
2017-12-20T03:24:59.455Z,40.15
2017-12-20T03:27:27.995Z,40.19
2017-12-20T03:29:56.631Z,40.09
2017-12-20T03:32:25.416Z,40.01
2017-12-20T03:34:53.996Z,40.08
2017-12-20T03:37:22.719Z,39.96
2017-12-20T03:39:51.595Z,39.95
2017-12-20T03:42:20.504Z,40.01
2017-12-20T03:44:49.204Z,40.02
2017-12-20T03:47:18.000Z,40.08
2017-12-20T03:49:46.765Z,40.05
2017-12-20T03:52:15.873Z,40.02
2017-12-20T03:54:44.483Z,39.85
2017-12-20T03:57:13.140Z,39.89
2017-12-20T03:59:41.732Z,39.99
2017-12-20T04:02:10.619Z,40.15
2017-12-20T04:04:39.262Z,40.10
2017-12-20T04:07:07.812Z,40.05
2017-12-20T04:09:36.432Z,40.05
2017-12-20T04:12:04.988Z,40.06
2017-12-20T04:14:33.812Z,40.03
2017-12-20T04:17:02.540Z,39.90
2017-12-20T04:19:31.360Z,39.90
2017-12-20T04:22:00.080Z,40.02
2017-12-20T04:24:28.939Z,40.05
2017-12-20T04:26:57.540Z,40.09
2017-12-20T04:29:26.119Z,40.25
2017-12-20T04:31:54.856Z,40.05
2017-12-20T04:34:23.476Z,40.12
2017-12-20T04:36:52.218Z,40.20
2017-12-20T04:39:20.896Z,40.17
2017-12-20T04:41:49.622Z,40.12
2017-12-20T04:44:18.260Z,40.12
2017-12-20T04:46:47.001Z,40.12
2017-12-20T04:49:15.860Z,40.14
2017-12-20T04:51:44.605Z,40.20
2017-12-20T04:54:20.168Z,40.24
2017-12-20T04:56:48.906Z,40.27
2017-12-20T04:59:17.548Z,40.33
2017-12-20T05:04:41.766Z,40.16
2017-12-20T05:07:10.492Z,40.27
2017-12-20T05:09:39.299Z,40.32
2017-12-20T05:12:07.833Z,40.36
2017-12-20T05:14:36.524Z,40.42
2017-12-20T05:17:05.373Z,40.36
2017-12-20T05:19:34.076Z,40.37
2017-12-20T05:22:02.797Z,40.50
2017-12-20T05:24:31.608Z,40.50
2017-12-20T05:27:00.184Z,40.58
2017-12-20T05:29:28.801Z,40.56
2017-12-20T05:31:57.443Z,40.59
2017-12-20T05:34:26.237Z,40.64
2017-12-20T05:36:54.966Z,40.71
2017-12-20T05:39:23.805Z,40.75
2017-12-20T05:41:52.389Z,40.83
2017-12-20T05:44:21.006Z,40.80
2017-12-20T05:46:49.716Z,40.92
2017-12-20T05:49:18.599Z,41.16
2017-12-20T05:51:47.430Z,41.21
2017-12-20T05:54:16.188Z,41.32
2017-12-20T05:56:49.424Z,41.33
2017-12-20T05:59:18.040Z,41.35
2017-12-20T06:01:46.937Z,41.43
2017-12-20T06:04:15.632Z,41.30
2017-12-20T06:06:44.520Z,41.49
2017-12-20T06:09:13.221Z,41.82
2017-12-20T06:11:41.945Z,42.47
2017-12-20T06:14:10.587Z,42.88
2017-12-20T06:16:39.308Z,43.61
2017-12-20T06:19:08.129Z,43.91
2017-12-20T06:21:36.730Z,44.11
2017-12-20T06:24:05.352Z,44.33
2017-12-20T06:26:34.024Z,44.42
2017-12-20T06:29:02.856Z,44.58
2017-12-20T06:31:31.576Z,44.69
2017-12-20T06:34:00.420Z,45.06
2017-12-20T06:36:28.992Z,44.82
2017-12-20T06:38:57.800Z,44.78
2017-12-20T06:41:26.512Z,44.74
2017-12-20T06:43:55.176Z,44.70
2017-12-20T06:46:23.896Z,44.72
2017-12-20T06:48:52.572Z,44.83
2017-12-20T06:51:21.467Z,44.78
2017-12-20T06:53:50.701Z,45.00
2017-12-20T06:56:20.286Z,44.95
2017-12-20T06:58:49.017Z,45.17
2017-12-20T07:01:18.582Z,45.97
2017-12-20T07:03:47.404Z,46.62
2017-12-20T07:06:16.101Z,46.91
2017-12-20T07:08:47.966Z,46.77
2017-12-20T07:11:17.471Z,46.39
2017-12-20T07:13:46.315Z,46.43
2017-12-20T07:16:15.289Z,46.30
2017-12-20T07:18:46.007Z,46.17
2017-12-20T07:21:19.363Z,46.02
2017-12-20T07:23:49.251Z,45.88
2017-12-20T07:26:21.753Z,45.93
2017-12-20T07:28:50.259Z,45.73
2017-12-20T07:31:20.056Z,45.69
2017-12-20T07:33:48.864Z,45.49
2017-12-20T07:36:17.414Z,45.27
2017-12-20T07:38:46.032Z,45.18
2017-12-20T07:41:14.732Z,45.02
2017-12-20T07:43:43.812Z,44.95
2017-12-20T07:46:12.524Z,44.85
2017-12-20T07:48:41.054Z,44.80
2017-12-20T07:51:09.612Z,44.73
2017-12-20T07:53:38.165Z,44.88
2017-12-20T07:56:07.060Z,44.90
2017-12-20T07:58:35.706Z,44.94
2017-12-20T08:01:04.256Z,44.82
2017-12-20T08:03:32.913Z,44.72
2017-12-20T08:06:01.648Z,44.75
2017-12-20T08:08:30.332Z,44.71
2017-12-20T08:10:59.025Z,44.79
2017-12-20T08:13:27.779Z,44.71
2017-12-20T08:15:56.414Z,44.56
2017-12-20T08:18:25.069Z,44.51
2017-12-20T08:20:53.920Z,44.38
2017-12-20T08:23:22.760Z,44.26
2017-12-20T08:25:51.495Z,43.70
2017-12-20T08:28:20.345Z,44.71
2017-12-20T08:30:48.899Z,47.62
2017-12-20T08:33:17.744Z,48.31
2017-12-20T08:35:46.287Z,48.21
2017-12-20T08:38:15.304Z,47.44
2017-12-20T08:40:44.228Z,46.54
2017-12-20T08:43:12.889Z,45.90
2017-12-20T08:45:41.428Z,44.80
2017-12-20T08:48:10.064Z,44.61
2017-12-20T08:50:38.880Z,43.99
2017-12-20T08:53:07.644Z,43.74
2017-12-20T08:55:36.551Z,43.45
2017-12-20T08:58:05.236Z,43.24
2017-12-20T09:00:34.184Z,42.99
2017-12-20T09:03:03.039Z,43.29
2017-12-20T09:05:31.541Z,43.09
2017-12-20T09:08:00.340Z,43.04
2017-12-20T09:10:29.149Z,42.80
2017-12-20T09:12:57.929Z,42.62
2017-12-20T09:15:26.500Z,42.92
2017-12-20T09:17:55.095Z,43.30
2017-12-20T09:20:23.620Z,43.23
2017-12-20T09:22:52.275Z,43.08
2017-12-20T09:25:20.781Z,43.30
2017-12-20T09:27:49.471Z,43.52
2017-12-20T09:30:18.189Z,43.39
2017-12-20T09:32:46.835Z,43.39
2017-12-20T09:35:15.749Z,43.44
2017-12-20T09:37:44.292Z,43.54
2017-12-20T09:40:13.155Z,43.54
2017-12-20T09:42:41.772Z,43.85
2017-12-20T09:45:10.664Z,44.01
2017-12-20T09:47:39.521Z,44.16
2017-12-20T09:50:08.241Z,44.28
2017-12-20T09:52:37.091Z,44.19
2017-12-20T09:55:05.879Z,44.28
2017-12-20T09:57:34.500Z,44.29
2017-12-20T10:00:03.255Z,44.31
2017-12-20T10:02:32.039Z,44.37
2017-12-20T10:05:01.357Z,44.45
2017-12-20T10:07:30.126Z,44.37
2017-12-20T10:09:58.752Z,44.41
2017-12-20T10:12:27.688Z,44.41
2017-12-20T10:14:56.320Z,44.40
2017-12-20T10:17:25.275Z,44.23
2017-12-20T10:19:53.768Z,44.13
2017-12-20T10:22:22.595Z,44.03
2017-12-20T10:24:51.435Z,43.99
2017-12-20T10:27:20.161Z,43.96
2017-12-20T10:29:49.019Z,43.76
2017-12-20T10:32:17.942Z,43.74
2017-12-20T10:34:46.621Z,43.51
2017-12-20T10:37:15.541Z,43.61
2017-12-20T10:39:44.282Z,43.68
2017-12-20T10:42:12.946Z,43.79
2017-12-20T10:44:46.672Z,43.81
2017-12-20T10:47:15.443Z,43.85
2017-12-20T10:49:44.084Z,43.91
2017-12-20T10:52:12.812Z,44.06
2017-12-20T10:54:41.645Z,44.07
2017-12-20T10:57:10.536Z,44.16
2017-12-20T10:59:39.409Z,44.20
2017-12-20T11:02:08.333Z,44.23
2017-12-20T11:04:37.201Z,44.25
2017-12-20T11:07:06.093Z,44.30
2017-12-20T11:09:34.783Z,44.29
2017-12-20T11:12:03.519Z,44.24
2017-12-20T11:14:32.187Z,44.28
2017-12-20T11:17:01.140Z,44.33
2017-12-20T11:19:29.909Z,44.22
2017-12-20T11:21:58.469Z,44.28
2017-12-20T11:24:27.261Z,44.29
2017-12-20T11:26:55.780Z,44.34
2017-12-20T11:29:24.476Z,44.38
2017-12-20T11:31:53.148Z,44.32
2017-12-20T11:34:21.825Z,44.37
2017-12-20T11:36:50.371Z,44.42
2017-12-20T11:39:19.016Z,44.45
2017-12-20T11:41:47.947Z,44.49
2017-12-20T11:44:16.619Z,44.54
2017-12-20T11:46:45.468Z,44.52
2017-12-20T11:49:14.176Z,44.55
2017-12-20T11:51:43.144Z,44.60
2017-12-20T11:54:11.908Z,44.64
2017-12-20T11:56:40.520Z,44.62
2017-12-20T11:59:09.283Z,44.59
2017-12-20T12:01:37.884Z,44.68
2017-12-20T12:04:06.661Z,44.67
2017-12-20T12:06:35.374Z,44.66
2017-12-20T12:09:04.235Z,44.66
2017-12-20T12:11:32.802Z,44.68
2017-12-20T12:14:01.598Z,44.68
2017-12-20T12:16:30.529Z,44.70
2017-12-20T12:18:59.020Z,44.70
2017-12-20T12:21:27.743Z,43.46
2017-12-20T12:23:56.529Z,43.28
2017-12-20T12:26:25.047Z,43.32
2017-12-20T12:28:53.725Z,43.38
2017-12-20T12:31:22.244Z,43.44
2017-12-20T12:33:50.880Z,43.65
2017-12-20T12:36:19.791Z,43.77
2017-12-20T12:38:48.504Z,43.78
2017-12-20T12:41:17.225Z,43.65
2017-12-20T12:43:45.856Z,43.58
2017-12-20T12:46:14.588Z,43.44
2017-12-20T12:48:43.249Z,43.42
2017-12-20T12:51:11.984Z,43.37
2017-12-20T12:53:40.860Z,43.36
2017-12-20T12:56:09.752Z,43.30
2017-12-20T12:58:38.552Z,43.10
2017-12-20T13:01:07.260Z,43.09
2017-12-20T13:03:36.948Z,43.01
2017-12-20T13:06:05.651Z,43.14
2017-12-20T13:08:34.448Z,43.10
2017-12-20T13:11:03.077Z,43.11
2017-12-20T13:13:32.103Z,43.03
2017-12-20T13:16:00.820Z,43.14
2017-12-20T13:18:29.512Z,43.24
2017-12-20T13:20:58.243Z,43.18
2017-12-20T13:23:26.852Z,43.19
2017-12-20T13:25:55.416Z,43.20
2017-12-20T13:28:24.020Z,43.20
2017-12-20T13:30:52.732Z,43.22
2017-12-20T13:33:21.385Z,43.21
2017-12-20T13:35:50.100Z,43.20
2017-12-20T13:38:18.947Z,43.25
2017-12-20T13:40:47.521Z,43.14
2017-12-20T13:43:16.336Z,43.18
2017-12-20T13:45:44.937Z,43.15
2017-12-20T13:48:13.720Z,43.12
2017-12-20T13:50:42.620Z,43.16
2017-12-20T13:53:11.312Z,43.18
2017-12-20T13:55:40.194Z,43.16
2017-12-20T13:58:09.073Z,43.11
2017-12-20T14:00:37.978Z,43.16
2017-12-20T14:03:06.860Z,43.24
2017-12-20T14:05:35.607Z,43.24
2017-12-20T14:08:04.268Z,43.16
2017-12-20T14:10:32.977Z,43.13
2017-12-20T14:13:01.620Z,43.09
2017-12-20T14:15:30.377Z,43.09
2017-12-20T14:17:59.143Z,43.09
2017-12-20T14:20:27.714Z,42.97
2017-12-20T14:22:56.514Z,42.94
2017-12-20T14:25:25.077Z,42.95
2017-12-20T14:27:53.761Z,42.86
2017-12-20T14:30:22.508Z,42.70
2017-12-20T14:32:51.252Z,42.61
2017-12-20T14:35:19.980Z,42.57
2017-12-20T14:37:48.648Z,42.58
2017-12-20T14:40:17.200Z,42.64
2017-12-20T14:42:45.996Z,42.73
2017-12-20T14:45:14.565Z,42.66
2017-12-20T14:47:43.307Z,42.67
2017-12-20T14:50:11.963Z,42.64
2017-12-20T14:52:40.772Z,42.57
2017-12-20T14:55:09.350Z,42.72
2017-12-20T14:57:37.990Z,42.74
2017-12-20T15:00:07.053Z,43.05
2017-12-20T15:02:35.709Z,43.06
2017-12-20T15:05:04.295Z,43.17
2017-12-20T15:07:32.932Z,43.14
2017-12-20T15:10:01.772Z,43.18
2017-12-20T15:12:30.777Z,43.68
2017-12-20T15:14:59.300Z,43.61
2017-12-20T15:17:28.052Z,43.73
2017-12-20T15:19:56.783Z,43.86
2017-12-20T15:22:25.879Z,44.15
2017-12-20T15:24:54.539Z,44.26
2017-12-20T15:27:23.310Z,44.33
2017-12-20T15:29:51.915Z,44.49
2017-12-20T15:32:20.644Z,44.51
2017-12-20T15:34:49.256Z,44.56
2017-12-20T15:37:18.160Z,44.55
2017-12-20T15:39:46.864Z,44.51
2017-12-20T15:42:15.951Z,44.32
2017-12-20T15:44:44.656Z,44.29
2017-12-20T15:47:13.501Z,44.28
2017-12-20T15:49:42.187Z,44.27
2017-12-20T15:52:11.084Z,44.23
2017-12-20T15:54:40.200Z,44.19
2017-12-20T15:57:09.068Z,44.33
2017-12-20T15:59:37.700Z,44.19
2017-12-20T16:02:06.648Z,44.04
2017-12-20T16:04:35.308Z,43.96
2017-12-20T16:07:04.100Z,43.85
2017-12-20T16:09:32.724Z,43.75
2017-12-20T16:12:01.463Z,43.67
2017-12-20T16:14:30.058Z,43.53
2017-12-20T16:16:58.834Z,43.53
2017-12-20T16:19:27.413Z,43.51
2017-12-20T16:21:56.333Z,43.39
2017-12-20T16:24:25.225Z,43.32
2017-12-20T16:26:53.968Z,43.26
2017-12-20T16:29:22.596Z,43.21
2017-12-20T16:31:51.493Z,43.20
2017-12-20T16:34:20.334Z,43.18
2017-12-20T16:36:48.905Z,43.08
2017-12-20T16:39:17.579Z,43.02
2017-12-20T16:41:46.428Z,42.99
2017-12-20T16:44:15.127Z,43.01
2017-12-20T16:46:44.060Z,42.95
2017-12-20T16:49:12.765Z,42.89
2017-12-20T16:51:41.579Z,42.91
2017-12-20T16:54:10.560Z,42.81
2017-12-20T16:56:39.232Z,42.77
2017-12-20T16:59:07.844Z,42.78
2017-12-20T17:01:36.732Z,42.88
2017-12-20T17:04:05.392Z,42.79
2017-12-20T17:06:34.095Z,42.73
2017-12-20T17:09:03.032Z,42.63
2017-12-20T17:11:31.917Z,42.63
2017-12-20T17:14:00.577Z,42.62
2017-12-20T17:16:29.342Z,42.57
2017-12-20T17:18:57.951Z,42.59
2017-12-20T17:21:26.841Z,42.55
2017-12-20T17:23:55.520Z,42.52
2017-12-20T17:26:24.411Z,42.46
2017-12-20T17:28:53.732Z,42.48
2017-12-20T17:31:22.456Z,42.50
2017-12-20T17:33:51.060Z,42.42
2017-12-20T17:36:19.816Z,42.35
2017-12-20T17:38:48.608Z,42.37
2017-12-20T17:41:17.204Z,42.40
2017-12-20T17:43:45.828Z,42.37
2017-12-20T17:46:15.096Z,42.33
2017-12-20T17:48:43.855Z,42.37
2017-12-20T17:51:12.586Z,42.36
2017-12-20T17:53:41.216Z,42.36
2017-12-20T17:56:09.928Z,42.38
2017-12-20T17:58:38.724Z,42.38
2017-12-20T18:01:07.489Z,42.35
2017-12-20T18:03:36.128Z,42.40
2017-12-20T18:06:05.252Z,42.36
2017-12-20T18:08:33.901Z,42.44
2017-12-20T18:11:02.809Z,42.40
2017-12-20T18:13:31.476Z,42.42
2017-12-20T18:16:00.252Z,42.44
2017-12-20T18:18:29.041Z,42.47
2017-12-20T18:20:57.548Z,42.50
2017-12-20T18:23:26.400Z,42.47
2017-12-20T18:25:54.975Z,42.56
2017-12-20T18:28:23.719Z,42.55
2017-12-20T18:30:52.487Z,42.61
2017-12-20T18:33:22.016Z,42.62
2017-12-20T18:35:50.687Z,42.60
2017-12-20T18:38:19.368Z,42.69
2017-12-20T18:40:48.124Z,42.73
2017-12-20T18:43:16.900Z,42.65
2017-12-20T18:45:45.491Z,42.77
2017-12-20T18:48:14.268Z,42.81
2017-12-20T18:50:42.999Z,42.85
2017-12-20T18:53:11.484Z,42.78
2017-12-20T18:55:40.461Z,42.83
2017-12-20T18:58:09.284Z,42.77
2017-12-20T19:00:38.346Z,42.75
2017-12-20T19:03:07.506Z,42.73
2017-12-20T19:05:36.184Z,42.72
2017-12-20T19:08:04.907Z,42.70
2017-12-20T19:10:33.619Z,42.75
2017-12-20T19:13:02.349Z,42.67
2017-12-20T19:15:31.076Z,42.65
2017-12-20T19:17:59.960Z,42.65
2017-12-20T19:20:28.716Z,42.55
2017-12-20T19:22:57.532Z,42.54
2017-12-20T19:25:27.392Z,42.59
2017-12-20T19:27:56.276Z,42.54
2017-12-20T19:30:26.383Z,42.60
2017-12-20T19:32:55.239Z,42.49
2017-12-20T19:35:23.968Z,42.60
2017-12-20T19:37:53.714Z,42.63
2017-12-20T19:40:24.218Z,42.62
2017-12-20T19:42:54.350Z,42.61
2017-12-20T19:45:23.160Z,42.71
2017-12-20T19:47:52.260Z,42.64
2017-12-20T19:50:20.874Z,42.74
2017-12-20T19:52:49.680Z,42.65
2017-12-20T19:55:18.566Z,42.62
2017-12-20T19:57:47.465Z,42.56
2017-12-20T20:00:16.216Z,42.61
2017-12-20T20:02:44.799Z,42.62
2017-12-20T20:05:13.377Z,42.55
2017-12-20T20:07:44.575Z,42.52
2017-12-20T20:10:14.353Z,42.54
2017-12-20T20:12:43.308Z,42.57
2017-12-20T20:15:13.063Z,42.54
2017-12-20T20:17:42.948Z,42.46
2017-12-20T20:20:11.477Z,42.08
2017-12-20T20:22:42.652Z,41.81
2017-12-20T20:25:16.724Z,41.74
2017-12-20T20:27:51.808Z,41.70
2017-12-20T20:30:29.896Z,41.73
2017-12-20T20:32:59.418Z,41.59
2017-12-20T20:35:28.551Z,41.55
2017-12-20T20:37:59.698Z,41.59
2017-12-20T20:40:33.094Z,42.03
2017-12-20T20:43:05.829Z,42.17
2017-12-20T20:45:35.060Z,42.13
2017-12-20T20:48:05.481Z,42.06
2017-12-20T20:50:35.064Z,42.01
2017-12-20T20:53:05.131Z,42.05
2017-12-20T20:55:34.040Z,41.96
2017-12-20T20:58:03.664Z,42.00
2017-12-20T21:00:32.503Z,42.44
2017-12-20T21:03:00.983Z,42.18
2017-12-20T21:05:29.904Z,42.16
2017-12-20T21:07:58.669Z,42.00
2017-12-20T21:10:27.479Z,41.82
2017-12-20T21:12:57.191Z,41.75
2017-12-20T21:15:27.517Z,41.83
2017-12-20T21:17:56.345Z,41.49
2017-12-20T21:20:25.136Z,41.20
2017-12-20T21:22:53.756Z,41.04
2017-12-20T21:25:22.856Z,41.40
2017-12-20T21:27:51.836Z,41.64
2017-12-20T21:30:20.648Z,41.56
2017-12-20T21:32:49.784Z,41.51
2017-12-20T21:35:18.506Z,41.35
2017-12-20T21:37:49.853Z,41.31
2017-12-20T21:40:18.836Z,41.22
2017-12-20T21:42:50.611Z,41.14
2017-12-20T21:45:23.168Z,41.12
2017-12-20T21:47:52.363Z,40.89
2017-12-20T21:50:21.343Z,41.03
2017-12-20T21:52:49.897Z,40.95
2017-12-20T21:55:19.965Z,40.85
2017-12-20T21:57:49.588Z,40.95
2017-12-20T22:00:21.681Z,40.95
2017-12-20T22:02:50.328Z,40.93
2017-12-20T22:05:20.280Z,40.87
2017-12-20T22:07:51.340Z,40.67
2017-12-20T22:10:20.529Z,40.72
2017-12-20T22:12:51.503Z,40.61
2017-12-20T22:15:21.422Z,40.61
2017-12-20T22:17:50.498Z,40.64
2017-12-20T22:20:19.457Z,40.56
2017-12-20T22:22:48.132Z,40.62
2017-12-20T22:25:19.014Z,40.64
2017-12-20T22:27:49.338Z,40.70
2017-12-20T22:30:18.469Z,40.69
2017-12-20T22:32:47.151Z,40.65
2017-12-20T22:35:15.924Z,40.79
2017-12-20T22:37:44.469Z,40.59
2017-12-20T22:40:13.147Z,40.67
2017-12-20T22:42:41.979Z,40.68
2017-12-20T22:45:10.536Z,40.69
2017-12-20T22:47:39.174Z,40.71
2017-12-20T22:50:07.928Z,40.72
2017-12-20T22:52:37.020Z,40.76
2017-12-20T22:55:06.518Z,40.74
2017-12-20T22:57:35.748Z,40.75
2017-12-20T23:00:05.026Z,40.66
2017-12-20T23:02:42.699Z,40.73
2017-12-20T23:05:15.448Z,40.79
2017-12-20T23:07:45.192Z,40.76
2017-12-20T23:10:13.785Z,40.86
2017-12-20T23:12:43.019Z,40.87
2017-12-20T23:15:11.563Z,40.87
2017-12-20T23:17:40.241Z,40.88
2017-12-20T23:20:08.908Z,40.89
2017-12-20T23:22:37.544Z,40.90
2017-12-20T23:25:06.332Z,40.83
2017-12-20T23:27:34.938Z,40.85
2017-12-20T23:30:03.909Z,40.91
2017-12-20T23:32:32.529Z,40.88
2017-12-20T23:35:01.352Z,40.80
2017-12-20T23:37:30.076Z,40.77
2017-12-20T23:39:58.996Z,40.87
2017-12-20T23:42:27.876Z,40.79
2017-12-20T23:44:56.708Z,40.88
2017-12-20T23:47:25.308Z,40.79
2017-12-20T23:49:54.096Z,40.84
2017-12-20T23:52:23.215Z,40.85
2017-12-20T23:54:52.064Z,40.88
2017-12-20T23:57:20.795Z,40.88
2017-12-20T23:59:49.451Z,40.88
